sensor_id;sensor_type;location;lat;lon;timestamp;pressure;altitude;pressure_sealevel;temperature;humidity
52983;BME280;48698;45.736;13.926;2023-04-28T00:03:47;97941.22;;;5.74;100.00
52983;BME280;48698;45.736;13.926;2023-04-28T00:09:00;97971.06;;;5.77;100.00
52983;BME280;48698;45.736;13.926;2023-04-28T00:14:04;97936.53;;;5.53;100.00
52983;BME280;48698;45.736;13.926;2023-04-28T00:19:17;97894.22;;;5.59;100.00
52983;BME280;48698;45.736;13.926;2023-04-28T00:24:20;97841.84;;;5.16;100.00
52983;BME280;48698;45.736;13.926;2023-04-28T00:29:23;97628.50;;;3.93;100.00
52983;BME280;48698;45.736;13.926;2023-04-28T00:34:26;97840.06;;;5.17;100.00
52983;BME280;48698;45.736;13.926;2023-04-28T00:39:30;97816.97;;;4.60;100.00
52983;BME280;48698;45.736;13.926;2023-04-28T00:44:43;97661.72;;;3.96;100.00
52983;BME280;48698;45.736;13.926;2023-04-28T00:49:46;97902.06;;;5.61;100.00
52983;BME280;48698;45.736;13.926;2023-04-28T00:54:50;97952.81;;;5.67;100.00
52983;BME280;48698;45.736;13.926;2023-04-28T00:59:53;97957.13;;;5.71;100.00
52983;BME280;48698;45.736;13.926;2023-04-28T01:04:56;97940.78;;;5.59;100.00
52983;BME280;48698;45.736;13.926;2023-04-28T01:10:05;97603.19;;;3.55;100.00
52983;BME280;48698;45.736;13.926;2023-04-28T01:15:14;97944.31;;;5.24;100.00
52983;BME280;48698;45.736;13.926;2023-04-28T01:20:17;97836.59;;;4.83;100.00
52983;BME280;48698;45.736;13.926;2023-04-28T01:25:20;97605.22;;;3.44;100.00
52983;BME280;48698;45.736;13.926;2023-04-28T01:30:23;97626.13;;;3.10;100.00
52983;BME280;48698;45.736;13.926;2023-04-28T01:35:26;97889.44;;;4.74;100.00
52983;BME280;48698;45.736;13.926;2023-04-28T01:40:30;97938.97;;;5.27;100.00
52983;BME280;48698;45.736;13.926;2023-04-28T01:45:33;97768.78;;;3.48;100.00
52983;BME280;48698;45.736;13.926;2023-04-28T01:50:35;97928.97;;;4.71;100.00
52983;BME280;48698;45.736;13.926;2023-04-28T01:55:48;97804.25;;;4.05;100.00
52983;BME280;48698;45.736;13.926;2023-04-28T02:00:51;97938.09;;;4.93;100.00
52983;BME280;48698;45.736;13.926;2023-04-28T02:05:53;97563.94;;;2.33;100.00
52983;BME280;48698;45.736;13.926;2023-04-28T02:10:56;97882.34;;;4.39;100.00
52983;BME280;48698;45.736;13.926;2023-04-28T02:16:00;97644.63;;;3.03;100.00
52983;BME280;48698;45.736;13.926;2023-04-28T02:21:12;97620.34;;;2.95;100.00
52983;BME280;48698;45.736;13.926;2023-04-28T02:26:25;97701.91;;;3.24;100.00
52983;BME280;48698;45.736;13.926;2023-04-28T02:31:28;97759.16;;;3.87;100.00
52983;BME280;48698;45.736;13.926;2023-04-28T02:36:41;97792.38;;;3.89;100.00
52983;BME280;48698;45.736;13.926;2023-04-28T02:41:43;97834.41;;;4.28;100.00
52983;BME280;48698;45.736;13.926;2023-04-28T02:46:46;97942.16;;;5.06;100.00
52983;BME280;48698;45.736;13.926;2023-04-28T02:51:49;97931.63;;;5.06;100.00
52983;BME280;48698;45.736;13.926;2023-04-28T02:56:56;97949.97;;;5.09;100.00
52983;BME280;48698;45.736;13.926;2023-04-28T03:01:59;97813.03;;;3.66;100.00
52983;BME280;48698;45.736;13.926;2023-04-28T03:07:10;97637.09;;;2.88;100.00
52983;BME280;48698;45.736;13.926;2023-04-28T03:12:23;97921.09;;;4.71;100.00
52983;BME280;48698;45.736;13.926;2023-04-28T03:17:26;97844.25;;;3.80;100.00
52983;BME280;48698;45.736;13.926;2023-04-28T03:22:29;97906.81;;;4.42;100.00
52983;BME280;48698;45.736;13.926;2023-04-28T03:27:32;97855.50;;;4.26;100.00
52983;BME280;48698;45.736;13.926;2023-04-28T03:32:45;97828.56;;;4.16;100.00
52983;BME280;48698;45.736;13.926;2023-04-28T03:37:48;97705.50;;;3.60;100.00
52983;BME280;48698;45.736;13.926;2023-04-28T03:42:51;97633.03;;;3.13;100.00
52983;BME280;48698;45.736;13.926;2023-04-28T03:47:54;97857.72;;;4.43;100.00
52983;BME280;48698;45.736;13.926;2023-04-28T03:52:57;97808.09;;;4.29;100.00
52983;BME280;48698;45.736;13.926;2023-04-28T03:58:09;97926.56;;;5.32;100.00
52983;BME280;48698;45.736;13.926;2023-04-28T04:03:12;97836.78;;;5.09;100.00
52983;BME280;48698;45.736;13.926;2023-04-28T04:08:16;97612.13;;;4.18;100.00
52983;BME280;48698;45.736;13.926;2023-04-28T04:13:21;97811.50;;;5.34;100.00
52983;BME280;48698;45.736;13.926;2023-04-28T04:18:23;97632.84;;;4.28;100.00
52983;BME280;48698;45.736;13.926;2023-04-28T04:23:26;97890.97;;;5.81;100.00
52983;BME280;48698;45.736;13.926;2023-04-28T04:28:29;97925.84;;;6.21;100.00
52983;BME280;48698;45.736;13.926;2023-04-28T04:33:32;97906.78;;;6.13;100.00
52983;BME280;48698;45.736;13.926;2023-04-28T04:38:36;97654.34;;;4.75;100.00
52983;BME280;48698;45.736;13.926;2023-04-28T04:43:38;97604.59;;;4.36;100.00
52983;BME280;48698;45.736;13.926;2023-04-28T04:48:51;97721.84;;;5.08;100.00
52983;BME280;48698;45.736;13.926;2023-04-28T04:53:54;97943.53;;;6.76;100.00
52983;BME280;48698;45.736;13.926;2023-04-28T04:58:57;97933.00;;;6.76;100.00
52983;BME280;48698;45.736;13.926;2023-04-28T05:04:00;97892.41;;;6.51;100.00
52983;BME280;48698;45.736;13.926;2023-04-28T05:09:03;97824.25;;;6.37;100.00
52983;BME280;48698;45.736;13.926;2023-04-28T05:14:06;97717.88;;;5.83;100.00
52983;BME280;48698;45.736;13.926;2023-04-28T05:19:08;97965.06;;;7.69;100.00
52983;BME280;48698;45.736;13.926;2023-04-28T05:24:11;97971.88;;;7.76;100.00
52983;BME280;48698;45.736;13.926;2023-04-28T05:29:23;97696.88;;;6.34;100.00
52983;BME280;48698;45.736;13.926;2023-04-28T05:34:26;97781.34;;;7.34;100.00
52983;BME280;48698;45.736;13.926;2023-04-28T05:39:29;97878.63;;;8.19;100.00
52983;BME280;48698;45.736;13.926;2023-04-28T05:44:32;97766.63;;;7.97;100.00
52983;BME280;48698;45.736;13.926;2023-04-28T05:49:34;97903.97;;;8.93;100.00
52983;BME280;48698;45.736;13.926;2023-04-28T05:54:47;97692.50;;;7.76;100.00
52983;BME280;48698;45.736;13.926;2023-04-28T05:59:50;97921.72;;;9.34;100.00
52983;BME280;48698;45.736;13.926;2023-04-28T06:04:53;97912.13;;;9.10;100.00
52983;BME280;48698;45.736;13.926;2023-04-28T06:09:56;97882.00;;;8.91;100.00
52983;BME280;48698;45.736;13.926;2023-04-28T06:15:09;97689.94;;;7.97;100.00
52983;BME280;48698;45.736;13.926;2023-04-28T06:20:12;97877.16;;;9.22;100.00
52983;BME280;48698;45.736;13.926;2023-04-28T06:25:15;97748.63;;;8.71;100.00
52983;BME280;48698;45.736;13.926;2023-04-28T06:30:19;97866.41;;;9.85;100.00
52983;BME280;48698;45.736;13.926;2023-04-28T06:35:22;97604.97;;;8.87;100.00
52983;BME280;48698;45.736;13.926;2023-04-28T06:40:25;97830.38;;;10.75;100.00
52983;BME280;48698;45.736;13.926;2023-04-28T06:45:28;97848.03;;;11.46;100.00
52983;BME280;48698;45.736;13.926;2023-04-28T06:50:30;97678.09;;;10.74;100.00
52983;BME280;48698;45.736;13.926;2023-04-28T06:55:43;97586.69;;;11.27;100.00
52983;BME280;48698;45.736;13.926;2023-04-28T07:00:56;97783.16;;;12.77;100.00
52983;BME280;48698;45.736;13.926;2023-04-28T07:05:59;97801.84;;;13.07;100.00
52983;BME280;48698;45.736;13.926;2023-04-28T07:11:01;97901.38;;;14.26;100.00
52983;BME280;48698;45.736;13.926;2023-04-28T07:16:05;97852.03;;;14.74;100.00
52983;BME280;48698;45.736;13.926;2023-04-28T07:21:08;97833.47;;;14.85;100.00
52983;BME280;48698;45.736;13.926;2023-04-28T07:26:11;97569.72;;;12.95;100.00
52983;BME280;48698;45.736;13.926;2023-04-28T07:31:17;97907.63;;;15.10;100.00
52983;BME280;48698;45.736;13.926;2023-04-28T07:36:20;97792.88;;;14.52;100.00
52983;BME280;48698;45.736;13.926;2023-04-28T07:41:25;97896.31;;;15.46;100.00
52983;BME280;48698;45.736;13.926;2023-04-28T07:46:29;97815.22;;;15.31;100.00
52983;BME280;48698;45.736;13.926;2023-04-28T07:51:31;97569.44;;;13.83;100.00
52983;BME280;48698;45.736;13.926;2023-04-28T07:56:34;97922.88;;;15.76;100.00
52983;BME280;48698;45.736;13.926;2023-04-28T08:01:37;97821.59;;;15.16;100.00
52983;BME280;48698;45.736;13.926;2023-04-28T08:06:40;97923.25;;;15.57;98.25
52983;BME280;48698;45.736;13.926;2023-04-28T08:11:43;97779.88;;;14.60;100.00
52983;BME280;48698;45.736;13.926;2023-04-28T08:16:45;97955.16;;;15.60;100.00
52983;BME280;48698;45.736;13.926;2023-04-28T08:21:48;97927.22;;;14.96;100.00
52983;BME280;48698;45.736;13.926;2023-04-28T08:26:51;97633.22;;;13.03;99.65
52983;BME280;48698;45.736;13.926;2023-04-28T08:31:54;97975.16;;;15.14;100.00
52983;BME280;48698;45.736;13.926;2023-04-28T08:36:57;97643.47;;;13.25;100.00
52983;BME280;48698;45.736;13.926;2023-04-28T08:42:03;97817.34;;;14.18;99.10
52983;BME280;48698;45.736;13.926;2023-04-28T08:47:13;97971.16;;;15.07;99.85
52983;BME280;48698;45.736;13.926;2023-04-28T08:52:16;98008.78;;;15.04;97.77
52983;BME280;48698;45.736;13.926;2023-04-28T08:57:20;97938.25;;;14.64;90.00
52983;BME280;48698;45.736;13.926;2023-04-28T09:02:22;97842.59;;;14.12;83.01
52983;BME280;48698;45.736;13.926;2023-04-28T09:07:25;97977.84;;;15.14;80.58
52983;BME280;48698;45.736;13.926;2023-04-28T09:12:35;97917.34;;;14.56;80.80
52983;BME280;48698;45.736;13.926;2023-04-28T09:17:49;97956.28;;;14.74;82.45
52983;BME280;48698;45.736;13.926;2023-04-28T09:22:54;97976.22;;;14.97;83.80
52983;BME280;48698;45.736;13.926;2023-04-28T09:28:18;97915.91;;;14.36;84.19
52983;BME280;48698;45.736;13.926;2023-04-28T09:33:22;97907.13;;;14.34;89.52
52983;BME280;48698;45.736;13.926;2023-04-28T09:38:24;97912.13;;;14.11;89.58
52983;BME280;48698;45.736;13.926;2023-04-28T09:43:29;97954.38;;;14.62;96.22
52983;BME280;48698;45.736;13.926;2023-04-28T09:48:34;97866.75;;;14.25;100.00
52983;BME280;48698;45.736;13.926;2023-04-28T09:53:47;97868.47;;;14.12;100.00
52983;BME280;48698;45.736;13.926;2023-04-28T09:58:52;97902.31;;;14.11;100.00
52983;BME280;48698;45.736;13.926;2023-04-28T10:03:55;97877.59;;;14.08;100.00
52983;BME280;48698;45.736;13.926;2023-04-28T10:09:09;97916.69;;;14.09;100.00
52983;BME280;48698;45.736;13.926;2023-04-28T10:14:13;97966.91;;;14.32;100.00
52983;BME280;48698;45.736;13.926;2023-04-28T10:19:16;97863.84;;;13.56;100.00
52983;BME280;48698;45.736;13.926;2023-04-28T10:24:25;97599.63;;;11.81;100.00
52983;BME280;48698;45.736;13.926;2023-04-28T10:29:31;97964.06;;;13.91;100.00
52983;BME280;48698;45.736;13.926;2023-04-28T10:34:34;97925.16;;;13.57;100.00
52983;BME280;48698;45.736;13.926;2023-04-28T10:39:37;97890.31;;;13.15;100.00
52983;BME280;48698;45.736;13.926;2023-04-28T10:44:40;97941.03;;;13.13;100.00
52983;BME280;48698;45.736;13.926;2023-04-28T10:50:03;97858.09;;;12.39;100.00
52983;BME280;48698;45.736;13.926;2023-04-28T11:00:28;97847.91;;;12.32;100.00
52983;BME280;48698;45.736;13.926;2023-04-28T11:05:32;97899.56;;;12.76;100.00
52983;BME280;48698;45.736;13.926;2023-04-28T11:16:16;97923.81;;;12.72;100.00
52983;BME280;48698;45.736;13.926;2023-04-28T11:21:30;97889.59;;;12.64;100.00
52983;BME280;48698;45.736;13.926;2023-04-28T11:26:36;97905.91;;;13.36;100.00
52983;BME280;48698;45.736;13.926;2023-04-28T11:31:50;97905.03;;;13.52;100.00
52983;BME280;48698;45.736;13.926;2023-04-28T11:36:53;97854.31;;;14.10;100.00
52983;BME280;48698;45.736;13.926;2023-04-28T11:42:09;97844.72;;;14.21;100.00
52983;BME280;48698;45.736;13.926;2023-04-28T11:47:12;97875.72;;;14.52;100.00
52983;BME280;48698;45.736;13.926;2023-04-28T11:52:14;97778.41;;;14.28;100.00
52983;BME280;48698;45.736;13.926;2023-04-28T11:57:19;97825.22;;;14.88;100.00
52983;BME280;48698;45.736;13.926;2023-04-28T12:02:26;97843.25;;;15.26;100.00
52983;BME280;48698;45.736;13.926;2023-04-28T12:07:42;97833.84;;;14.79;100.00
52983;BME280;48698;45.736;13.926;2023-04-28T12:12:45;97848.34;;;15.16;100.00
52983;BME280;48698;45.736;13.926;2023-04-28T12:17:53;97752.59;;;14.82;100.00
52983;BME280;48698;45.736;13.926;2023-04-28T12:22:56;97838.06;;;16.01;100.00
52983;BME280;48698;45.736;13.926;2023-04-28T12:28:06;97827.41;;;15.23;100.00
52983;BME280;48698;45.736;13.926;2023-04-28T12:33:25;97699.84;;;15.11;100.00
52983;BME280;48698;45.736;13.926;2023-04-28T12:38:29;97584.78;;;14.60;100.00
52983;BME280;48698;45.736;13.926;2023-04-28T12:43:32;97741.00;;;15.85;100.00
52983;BME280;48698;45.736;13.926;2023-04-28T12:48:35;97787.91;;;16.16;100.00
52983;BME280;48698;45.736;13.926;2023-04-28T12:53:38;97808.16;;;16.20;100.00
52983;BME280;48698;45.736;13.926;2023-04-28T12:58:41;97759.91;;;16.08;100.00
52983;BME280;48698;45.736;13.926;2023-04-28T13:03:43;97549.19;;;14.72;100.00
52983;BME280;48698;45.736;13.926;2023-04-28T13:08:46;97712.38;;;15.35;100.00
52983;BME280;48698;45.736;13.926;2023-04-28T13:13:49;97680.34;;;15.09;100.00
52983;BME280;48698;45.736;13.926;2023-04-28T13:18:58;97666.53;;;14.89;100.00
52983;BME280;48698;45.736;13.926;2023-04-28T13:24:01;97760.94;;;15.94;100.00
52983;BME280;48698;45.736;13.926;2023-04-28T13:29:14;97510.28;;;14.81;100.00
52983;BME280;48698;45.736;13.926;2023-04-28T13:34:17;97413.31;;;14.28;100.00
52983;BME280;48698;45.736;13.926;2023-04-28T13:39:20;97737.53;;;16.58;100.00
52983;BME280;48698;45.736;13.926;2023-04-28T13:44:23;97684.66;;;16.60;100.00
52983;BME280;48698;45.736;13.926;2023-04-28T13:49:26;97729.47;;;16.70;100.00
52983;BME280;48698;45.736;13.926;2023-04-28T13:54:29;97730.75;;;16.88;100.00
52983;BME280;48698;45.736;13.926;2023-04-28T13:59:32;97633.94;;;16.33;100.00
52983;BME280;48698;45.736;13.926;2023-04-28T14:04:35;97710.25;;;16.40;100.00
52983;BME280;48698;45.736;13.926;2023-04-28T14:09:38;97696.25;;;16.60;100.00
52983;BME280;48698;45.736;13.926;2023-04-28T14:14:54;97691.06;;;16.70;99.49
52983;BME280;48698;45.736;13.926;2023-04-28T14:20:07;97708.50;;;16.02;96.23
52983;BME280;48698;45.736;13.926;2023-04-28T14:25:12;97659.25;;;15.92;89.88
52983;BME280;48698;45.736;13.926;2023-04-28T14:30:16;97691.81;;;16.35;93.30
52983;BME280;48698;45.736;13.926;2023-04-28T14:35:19;97714.66;;;15.79;85.56
52983;BME280;48698;45.736;13.926;2023-04-28T14:40:24;97632.38;;;15.81;83.47
52983;BME280;48698;45.736;13.926;2023-04-28T14:45:37;97686.66;;;15.96;84.32
52983;BME280;48698;45.736;13.926;2023-04-28T14:50:41;97704.34;;;15.98;79.28
52983;BME280;48698;45.736;13.926;2023-04-28T14:55:44;97418.13;;;14.36;76.00
52983;BME280;48698;45.736;13.926;2023-04-28T15:05:52;97635.13;;;15.31;76.09
52983;BME280;48698;45.736;13.926;2023-04-28T15:10:55;97670.84;;;15.80;74.12
52983;BME280;48698;45.736;13.926;2023-04-28T15:15:59;97480.22;;;14.52;76.19
52983;BME280;48698;45.736;13.926;2023-04-28T15:21:02;97674.16;;;15.46;78.09
52983;BME280;48698;45.736;13.926;2023-04-28T15:26:16;97685.94;;;15.31;81.71
52983;BME280;48698;45.736;13.926;2023-04-28T15:31:19;97672.34;;;15.46;81.11
52983;BME280;48698;45.736;13.926;2023-04-28T15:36:25;97440.69;;;13.92;83.07
52983;BME280;48698;45.736;13.926;2023-04-28T15:41:30;97679.13;;;15.52;87.44
52983;BME280;48698;45.736;13.926;2023-04-28T15:46:34;97658.56;;;15.27;90.63
52983;BME280;48698;45.736;13.926;2023-04-28T15:51:38;97685.81;;;15.32;88.04
52983;BME280;48698;45.736;13.926;2023-04-28T15:56:41;97625.53;;;14.64;87.16
52983;BME280;48698;45.736;13.926;2023-04-28T16:02:02;97600.22;;;14.16;89.84
52983;BME280;48698;45.736;13.926;2023-04-28T16:07:06;97617.06;;;14.30;91.72
52983;BME280;48698;45.736;13.926;2023-04-28T16:12:09;97668.00;;;14.81;93.63
52983;BME280;48698;45.736;13.926;2023-04-28T16:17:12;97567.34;;;14.55;92.48
52983;BME280;48698;45.736;13.926;2023-04-28T16:22:18;97603.31;;;15.26;95.40
52983;BME280;48698;45.736;13.926;2023-04-28T16:27:22;97495.94;;;14.69;93.16
52983;BME280;48698;45.736;13.926;2023-04-28T16:32:26;97599.47;;;15.30;96.92
52983;BME280;48698;45.736;13.926;2023-04-28T16:37:31;97602.25;;;15.54;95.25
52983;BME280;48698;45.736;13.926;2023-04-28T16:42:34;97309.97;;;14.16;93.55
52983;BME280;48698;45.736;13.926;2023-04-28T16:47:40;97619.03;;;16.52;90.82
52983;BME280;48698;45.736;13.926;2023-04-28T16:52:45;97615.97;;;16.70;88.23
52983;BME280;48698;45.736;13.926;2023-04-28T16:57:50;97600.09;;;17.24;85.74
52983;BME280;48698;45.736;13.926;2023-04-28T17:02:54;97609.41;;;17.20;86.29
52983;BME280;48698;45.736;13.926;2023-04-28T17:07:58;97475.69;;;15.03;88.44
52983;BME280;48698;45.736;13.926;2023-04-28T17:13:01;97570.66;;;16.19;90.40
52983;BME280;48698;45.736;13.926;2023-04-28T17:18:12;97501.94;;;15.83;91.74
52983;BME280;48698;45.736;13.926;2023-04-28T17:23:16;97604.84;;;16.16;92.48
52983;BME280;48698;45.736;13.926;2023-04-28T17:28:26;97575.38;;;15.92;96.80
52983;BME280;48698;45.736;13.926;2023-04-28T17:33:30;97538.69;;;15.20;100.00
52983;BME280;48698;45.736;13.926;2023-04-28T17:38:37;97505.69;;;15.32;100.00
52983;BME280;48698;45.736;13.926;2023-04-28T17:43:41;97480.44;;;14.74;100.00
52983;BME280;48698;45.736;13.926;2023-04-28T17:48:45;97487.94;;;14.05;100.00
52983;BME280;48698;45.736;13.926;2023-04-28T17:53:48;97615.00;;;13.94;100.00
52983;BME280;48698;45.736;13.926;2023-04-28T17:58:51;97572.88;;;13.16;100.00
52983;BME280;48698;45.736;13.926;2023-04-28T18:03:55;97586.31;;;12.27;100.00
52983;BME280;48698;45.736;13.926;2023-04-28T18:09:00;97596.47;;;11.75;100.00
52983;BME280;48698;45.736;13.926;2023-04-28T18:14:04;97448.59;;;10.46;100.00
52983;BME280;48698;45.736;13.926;2023-04-28T18:19:07;97534.72;;;11.37;100.00
52983;BME280;48698;45.736;13.926;2023-04-28T18:24:11;97399.56;;;9.85;100.00
52983;BME280;48698;45.736;13.926;2023-04-28T18:29:14;97616.38;;;10.35;100.00
52983;BME280;48698;45.736;13.926;2023-04-28T18:34:18;97518.25;;;9.46;100.00
52983;BME280;48698;45.736;13.926;2023-04-28T18:39:27;97619.28;;;9.40;100.00
52983;BME280;48698;45.736;13.926;2023-04-28T18:44:30;97523.09;;;9.01;100.00
52983;BME280;48698;45.736;13.926;2023-04-28T18:49:35;97527.25;;;9.06;100.00
52983;BME280;48698;45.736;13.926;2023-04-28T18:54:40;97663.53;;;9.75;100.00
52983;BME280;48698;45.736;13.926;2023-04-28T18:59:43;97630.28;;;8.73;100.00
52983;BME280;48698;45.736;13.926;2023-04-28T19:04:47;97695.59;;;9.13;100.00
52983;BME280;48698;45.736;13.926;2023-04-28T19:09:51;97548.06;;;8.95;100.00
52983;BME280;48698;45.736;13.926;2023-04-28T19:14:55;97598.72;;;9.26;100.00
52983;BME280;48698;45.736;13.926;2023-04-28T19:19:59;97569.28;;;8.36;100.00
52983;BME280;48698;45.736;13.926;2023-04-28T19:25:03;97652.09;;;8.99;100.00
52983;BME280;48698;45.736;13.926;2023-04-28T19:30:08;97669.25;;;9.29;100.00
52983;BME280;48698;45.736;13.926;2023-04-28T19:35:12;97307.28;;;7.21;100.00
52983;BME280;48698;45.736;13.926;2023-04-28T19:40:16;97652.59;;;8.88;100.00
52983;BME280;48698;45.736;13.926;2023-04-28T19:45:20;97509.06;;;8.01;100.00
52983;BME280;48698;45.736;13.926;2023-04-28T19:50:34;97654.81;;;8.37;100.00
52983;BME280;48698;45.736;13.926;2023-04-28T19:55:39;97437.94;;;6.91;100.00
52983;BME280;48698;45.736;13.926;2023-04-28T20:00:42;97701.09;;;8.48;100.00
52983;BME280;48698;45.736;13.926;2023-04-28T20:05:47;97416.81;;;6.91;100.00
52983;BME280;48698;45.736;13.926;2023-04-28T20:10:52;97546.41;;;7.51;100.00
52983;BME280;48698;45.736;13.926;2023-04-28T20:15:56;97608.66;;;8.44;100.00
52983;BME280;48698;45.736;13.926;2023-04-28T20:21:01;97587.84;;;7.93;100.00
52983;BME280;48698;45.736;13.926;2023-04-28T20:26:11;97638.28;;;8.10;100.00
52983;BME280;48698;45.736;13.926;2023-04-28T20:31:15;97450.53;;;7.06;100.00
52983;BME280;48698;45.736;13.926;2023-04-28T20:36:19;97634.94;;;8.26;100.00
52983;BME280;48698;45.736;13.926;2023-04-28T20:41:23;97510.63;;;7.43;100.00
52983;BME280;48698;45.736;13.926;2023-04-28T20:46:27;97557.44;;;7.82;100.00
52983;BME280;48698;45.736;13.926;2023-04-28T20:51:32;97339.69;;;7.04;100.00
52983;BME280;48698;45.736;13.926;2023-04-28T20:56:36;97587.94;;;8.53;100.00
52983;BME280;48698;45.736;13.926;2023-04-28T21:01:39;97657.81;;;8.69;100.00
52983;BME280;48698;45.736;13.926;2023-04-28T21:06:42;97302.19;;;6.96;100.00
52983;BME280;48698;45.736;13.926;2023-04-28T21:11:55;97399.47;;;7.47;100.00
52983;BME280;48698;45.736;13.926;2023-04-28T21:16:58;97299.72;;;6.71;100.00
52983;BME280;48698;45.736;13.926;2023-04-28T21:22:00;97435.59;;;7.26;100.00
52983;BME280;48698;45.736;13.926;2023-04-28T21:27:04;97666.28;;;8.57;100.00
52983;BME280;48698;45.736;13.926;2023-04-28T21:32:07;97546.69;;;7.87;100.00
52983;BME280;48698;45.736;13.926;2023-04-28T21:37:10;97522.63;;;7.51;100.00
52983;BME280;48698;45.736;13.926;2023-04-28T21:42:13;97642.44;;;8.15;100.00
52983;BME280;48698;45.736;13.926;2023-04-28T21:47:16;97457.41;;;7.10;100.00
52983;BME280;48698;45.736;13.926;2023-04-28T21:52:19;97362.53;;;6.40;100.00
52983;BME280;48698;45.736;13.926;2023-04-28T21:57:22;97289.84;;;5.90;100.00
52983;BME280;48698;45.736;13.926;2023-04-28T22:02:25;97537.81;;;7.24;100.00
52983;BME280;48698;45.736;13.926;2023-04-28T22:07:28;97546.25;;;7.11;100.00
52983;BME280;48698;45.736;13.926;2023-04-28T22:12:31;97476.00;;;6.85;100.00
52983;BME280;48698;45.736;13.926;2023-04-28T22:17:34;97622.50;;;8.08;100.00
52983;BME280;48698;45.736;13.926;2023-04-28T22:22:37;97544.16;;;7.42;100.00
52983;BME280;48698;45.736;13.926;2023-04-28T22:27:40;97575.78;;;7.22;100.00
52983;BME280;48698;45.736;13.926;2023-04-28T22:32:52;97409.06;;;6.64;100.00
52983;BME280;48698;45.736;13.926;2023-04-28T22:37:58;97570.81;;;8.00;100.00
52983;BME280;48698;45.736;13.926;2023-04-28T22:43:01;97514.75;;;7.71;100.00
52983;BME280;48698;45.736;13.926;2023-04-28T22:48:05;97627.38;;;8.59;100.00
52983;BME280;48698;45.736;13.926;2023-04-28T22:53:09;97546.81;;;7.62;100.00
52983;BME280;48698;45.736;13.926;2023-04-28T22:58:12;97559.84;;;7.89;100.00
52983;BME280;48698;45.736;13.926;2023-04-28T23:03:15;97485.56;;;7.53;100.00
52983;BME280;48698;45.736;13.926;2023-04-28T23:08:18;97573.69;;;7.73;100.00
52983;BME280;48698;45.736;13.926;2023-04-28T23:13:21;97328.19;;;6.42;100.00
52983;BME280;48698;45.736;13.926;2023-04-28T23:18:25;97616.63;;;8.00;100.00
52983;BME280;48698;45.736;13.926;2023-04-28T23:23:28;97631.19;;;7.68;100.00
52983;BME280;48698;45.736;13.926;2023-04-28T23:28:32;97601.00;;;7.52;100.00
52983;BME280;48698;45.736;13.926;2023-04-28T23:33:34;97415.66;;;6.76;100.00
52983;BME280;48698;45.736;13.926;2023-04-28T23:38:38;97604.66;;;7.48;100.00
52983;BME280;48698;45.736;13.926;2023-04-28T23:43:41;97604.44;;;7.54;100.00
52983;BME280;48698;45.736;13.926;2023-04-28T23:48:44;97541.69;;;6.69;100.00
52983;BME280;48698;45.736;13.926;2023-04-28T23:53:46;97489.22;;;6.62;100.00
52983;BME280;48698;45.736;13.926;2023-04-28T23:58:49;97525.63;;;6.99;100.00
